Updated22/01/2020 3:58am 
 

Nearby Airport METAR Reports

 

KVSF - Springfield, Vermont, USA
Distance from station: WSW 8mi, 12km
Updated: 01/22/2020 3:54am
Mostly cloudy
Mostly cloudy
 Wind from calm
Wind: Calm
Temperature: 9°F , -13°C
Dew Point: 3°F , -16°C
Humidity: 78%
Barometer: 30.36 inHg , 1028.1 hPa
Clouds: Mostly cloudy
Visibility: 10 miles , 16 km
Cloud details: Mostly cloudy 3100 ft
2020/01/22 08:54 KVSF 220854Z AUTO 00000KT 10SM BKN031 M13/M16 A3036 RMK AO2 SLP295 T11331161 58002
KLEB - Lebanon, New Hampshire, USA
Distance from station: N 18mi, 29km
Updated: 01/22/2020 3:53am
Mostly cloudy
Mostly cloudy
 Wind from calm
Wind: Calm
Temperature: 7°F , -14°C
Dew Point: 1°F , -17°C
Humidity: 78%
Barometer: 30.35 inHg , 1027.8 hPa
Clouds: Mostly cloudy
Visibility: 10 miles , 16 km
Cloud details: Mostly cloudy 2600 ft
2020/01/22 08:53 KLEB 220853Z AUTO 00000KT 10SM BKN026 M14/M17 A3035 RMK AO2 SLP297 T11391167 58004
KRUT - Rutland State, Vermont, USA
Distance from station: WNW 31mi, 50km
Updated: 01/22/2020 3:56am
Overcast
Overcast
 Wind from S
Wind: S 5 mph , 7 km/h
Temperature: 19°F , -7°C
Wind Chill: 12°F , -11°C
Dew Point: 12°F , -11°C
Humidity: 73%
Barometer: 30.34 inHg , 1027.4 hPa
Clouds: Overcast
Visibility: 10 miles , 16 km
Cloud details: Overcast 2800 ft
2020/01/22 08:56 KRUT 220856Z AUTO 17004KT 10SM OVC028 M07/M11 A3034 RMK AO2 SLP281 T10721111 58005 FZRANO $
 
KEEN - Keene/Dillant, New Hampshire, USA
Distance from station: S 34mi, 55km
Updated: 01/22/2020 3:56am
Clear
Clear
 Wind from SSW
Wind: SSW 3 mph , 6 km/h
Temperature: -0°F , -18°C
Dew Point: -2°F , -19°C
Humidity: 92%
Barometer: 30.39 inHg , 1029.1 hPa
Clouds: Clear
Visibility: 10 miles , 16 km
2020/01/22 08:56 KEEN 220856Z AUTO 20003KT 10SM CLR M18/M19 A3039 RMK AO2 SLP305 T11781194 51000 FZRANO $
K1P1 - Plymouth, New Hampshire, USA
Distance from station: NE 42mi, 67km
Updated: 01/22/2020 3:55am
Overcast
Overcast
 Wind from calm
Wind: Calm
Temperature: 12°F , -11°C
Dew Point: 5°F , -15°C
Humidity: 73%
Barometer: 30.35 inHg , 1027.8 hPa
Clouds: Overcast
Visibility: 10 miles , 16 km
Cloud details: Overcast 3300 ft
2020/01/22 08:55 K1P1 220855Z AUTO 00000KT 10SM OVC033 M11/M15 A3035 RMK AO2 T11121147
KAFN - Jaffrey, New Hampshire, USA
Distance from station: SSE 44mi, 70km
Updated: 01/22/2020 3:52am
Clear
Clear
 Wind from S
Wind: S 6 mph , 9 km/h
Temperature: 3°F , -16°C
Wind Chill: -8°F , -22°C
Dew Point: -0°F , -18°C
Humidity: 85%
Barometer: 30.32 inHg , 1026.8 hPa
Clouds: Clear
Visibility: 10 miles , 16 km
2020/01/22 08:52 KAFN 220852Z AUTO 18005KT 10SM CLR M16/M18 A3032 RMK AO2 SLP295 T11561178 51002
 
KCON - Concord, New Hampshire, USA
Distance from station: ESE 45mi, 73km
Updated: 01/22/2020 3:51am
Clear
Clear
 Wind from calm
Wind: Calm
Temperature: 9°F , -13°C
Dew Point: 3°F , -16°C
Humidity: 78%
Barometer: 30.37 inHg , 1028.4 hPa
Clouds: Clear
Visibility: 10 miles , 16 km
2020/01/22 08:51 KCON 220851Z AUTO 00000KT 10SM CLR M13/M16 A3037 RMK AO2 SLP293 T11331161 58001
KLCI - Laconia Muni, New Hampshire, USA
Distance from station: ENE 49mi, 80km
Updated: 01/22/2020 3:56am
Partly cloudy
Partly cloudy
 Wind from WSW
Wind: WSW 5 mph , 7 km/h
Temperature: 14°F , -10°C
Wind Chill: 6°F , -14°C
Dew Point: 7°F , -14°C
Humidity: 73%
Barometer: 30.35 inHg , 1027.8 hPa
Clouds: Partly cloudy
Visibility: 10 miles , 16 km
Cloud details: Partly cloudy 10000 ft
2020/01/22 08:56 KLCI 220856Z AUTO 25004KT 10SM SCT100 M10/M14 A3035 RMK AO2 SLP286 T11001144 51001 FZRANO
KDDH - Bennington, Vermont, USA
Distance from station: SW 55mi, 89km
Updated: 01/22/2020 3:54am
Overcast
Overcast
 Wind from SW
Wind: SW 5 mph , 7 km/h
Temperature: 19°F , -7°C
Wind Chill: 12°F , -11°C
Dew Point: 12°F , -11°C
Humidity: 73%
Barometer: 30.36 inHg , 1028.1 hPa
Clouds: Overcast
Visibility: 10 miles , 16 km
Cloud details: Overcast 2400 ft
2020/01/22 08:54 KDDH 220854Z AUTO 22004KT 10SM OVC024 M07/M11 A3036 RMK AO2 SLP294 T10671111 58004
 
K6B0 - Middlebury, Vermont, USA
Distance from station: NW 56mi, 90km
Updated: 01/22/2020 3:55am
Overcast
Overcast
 Wind from SE
Wind: SE 6 mph , 9 km/h
Temperature: 23°F , -5°C
Wind Chill: 16°F , -9°C
Dew Point: 12°F , -11°C
Humidity: 63%
Barometer: 30.34 inHg , 1027.4 hPa
Clouds: Overcast
Visibility: 10 miles , 16 km
Cloud details: Overcast 3100 ft
2020/01/22 08:55 K6B0 220855Z AUTO 14005KT 10SM OVC031 M05/M11 A3034 RMK AO2 T10551107
KMHT - Manchester, New Hampshire, USA
Distance from station: ESE 56mi, 90km
Updated: 01/22/2020 3:53am
Partly cloudy
Partly cloudy
 Wind from calm
Wind: Calm
Temperature: 12°F , -11°C
Dew Point: 3°F , -16°C
Humidity: 67%
Barometer: 30.36 inHg , 1028.1 hPa
Clouds: Partly cloudy
Visibility: 10 miles , 16 km
Cloud details: Partly cloudy 11000 ft
2020/01/22 08:53 KMHT 220853Z 00000KT 10SM SCT110 M11/M16 A3036 RMK AO2 SLP305 T11111161 50000
KORE - Orange, Massachusetts, USA
Distance from station: S 56mi, 90km
Updated: 01/22/2020 3:52am
Clear
Clear
 Wind from calm
Wind: Calm
Temperature: -0°F , -18°C
Dew Point: -6°F , -21°C
Humidity: 78%
Barometer: 30.39 inHg , 1029.1 hPa
Clouds: Clear
Visibility: 10 miles , 16 km
2020/01/22 08:52 KORE 220852Z AUTO 00000KT 10SM CLR M18/M21 A3039 RMK AO2 SLP304 I3000 T11781211 50000
 
KMPV - Montpelier/Barre, Vermont, USA
Distance from station: N 58mi, 93km
Updated: 01/22/2020 3:51am
Overcast
Overcast
 Wind from calm
Wind: Calm
Temperature: 14°F , -10°C
Dew Point: 7°F , -14°C
Humidity: 73%
Barometer: 30.32 inHg , 1026.8 hPa
Clouds: Overcast
Visibility: 10 miles , 16 km
Cloud details: Overcast 2600 ft
2020/01/22 08:51 KMPV 220851Z AUTO 00000KT 10SM OVC026 M10/M14 A3032 RMK AO2 SLP292 T11001139 58002
KASH - Nashua/Boire Fld, New Hampshire, USA
Distance from station: SE 59mi, 95km
Updated: 01/22/2020 3:56am
Clear
Clear
 Wind from calm
Wind: Calm
Temperature: 9°F , -13°C
Dew Point: 3°F , -16°C
Humidity: 78%
Barometer: 30.39 inHg , 1029.1 hPa
Clouds: Clear
Visibility: 10 miles , 16 km
2020/01/22 08:56 KASH 220856Z AUTO 00000KT 10SM CLR M13/M16 A3039 RMK AO2 SLP301 T11331161 51001
KAQW - North Adams, Massachusetts, USA
Distance from station: SW 62mi, 99km
Updated: 01/22/2020 3:52am
Overcast
Overcast
 Wind from WNW
Wind: WNW 6 mph , 9 km/h
Temperature: 12°F , -11°C
Wind Chill: 2°F , -17°C
Dew Point: 7°F , -14°C
Humidity: 79%
Barometer: 30.37 inHg , 1028.4 hPa
Clouds: Overcast
Visibility: 10 miles , 16 km
Cloud details: Overcast 2400 ft
2020/01/22 08:52 KAQW 220852Z AUTO 30005KT 10SM OVC024 M11/M14 A3037 RMK AO2 SLP297 T11061144 58006 TSNO
 
KGFL - Glens Falls, New York, USA
Distance from station: W 63mi, 101km
Updated: 01/22/2020 3:53am
Clear
Clear
 Wind from calm
Wind: Calm
Temperature: 14°F , -10°C
Dew Point: 9°F , -13°C
Humidity: 79%
Barometer: 30.38 inHg , 1028.8 hPa
Clouds: Clear
Visibility: 10 miles , 16 km
2020/01/22 08:53 KGFL 220853Z AUTO 00000KT 10SM CLR M10/M13 A3038 RMK AO2 SLP301 T11001133 58005
KFIT - Fitchburg, Massachusetts, USA
Distance from station: SSE 65mi, 105km
Updated: 01/22/2020 3:52am
Clear
Clear
 Wind from calm
Wind: Calm
Temperature: 10°F , -12°C
Dew Point: 3°F , -16°C
Humidity: 72%
Barometer: 30.38 inHg , 1028.8 hPa
Clouds: Clear
Visibility: 10 miles , 16 km
2020/01/22 08:52 KFIT 220852Z AUTO 00000KT 10SM CLR M12/M16 A3038 RMK AO2 SLP295 T11171156 58001
KDAW - Rochester, New Hampshire, USA
Distance from station: E 73mi, 118km
Updated: 01/22/2020 3:51am
Overcast
Overcast
 Wind from calm
Wind: Calm
Temperature: 9°F , -13°C
Dew Point: 1°F , -17°C
Humidity: 72%
Barometer: 30.36 inHg , 1028.1 hPa
Clouds: Overcast
Visibility: 10 miles , 16 km
Cloud details: Overcast 11000 ft
2020/01/22 08:51 KDAW 220851Z AUTO 00000KT 10SM OVC110 M13/M17 A3036 RMK AO2 SLP283 T11281172 50001
 
K1V4 - St. Johnsbury, Vermont, USA
Distance from station: NNE 74mi, 119km
Updated: 01/22/2020 3:54am

 
Temperature: 12°F , -11°C
Dew Point: 7°F , -14°C
Humidity: 79%
Barometer: 30.32 inHg , 1026.8 hPa
2020/01/22 08:54 K1V4 220854Z AUTO M11/M14 A3032 RMK AO1 SLP289 T11061139 58001
KLWM - Lawrence, Massachusetts, USA
Distance from station: SE 77mi, 124km
Updated: 01/22/2020 3:54am
Mostly cloudy
Mostly cloudy
 Wind from SSW
Wind: SSW 3 mph , 6 km/h
Temperature: 10°F , -12°C
Dew Point: 1°F , -17°C
Humidity: 67%
Barometer: 30.40 inHg , 1029.5 hPa
Clouds: Mostly cloudy
Visibility: 10 miles , 16 km
Cloud details: Mostly cloudy 11000 ft
2020/01/22 08:54 KLWM 220854Z AUTO 20003KT 10SM BKN110 M12/M17 A3040 RMK AO2 SLP297 T11221167 58003



Flag Counter
free counter page views since 4/29/2009